Dades meteomassalio
Diari Summary for Febrer 16, 2017 Units:  English    Metric   Both
« Previous Day
Next Day »
Diari Semanal Mensual Anual Personalitzat
  Maxima: Minima: Mijana:
Temperatura: TemperatureC °F 5.4 °F 10.4 °F
Rosada: DewpointC °F 4.2 °F 7.4 °F
Humitat: Humidity % 55 % 83 %
Velocitat del vent: WindSpeedKMH mph 0.0 mph 1.4 mph
Racha vent: WindSpeedGustKMH mph - -
Vent:- - East
Pressio: PressurehPa in 1029.7 in -
Pluja: 0.0 in    
Historical Graphs
 
 
Tabular Data for Febrer 16, 2017
Time Temperature Dew Point Pressure Wind Wind Speed Wind Gust Humidity Rainfall Rate (Hourly) solar Conditions
TemperatureC °F DewpointC °F PressurehPa in Calm     Humidity % HourlyPrecipMM in SolarRadiationWatts/m^2 W/m2 Conditions
00:01 6.0 °F 4.8 °F 1034.8 in Calm     92 % 0.0 in 0.0 W/m2 RA
00:06 6.1 °F 4.8 °F 1034.8 in Calm     92 % 0.0 in 0.0 W/m2 CLR
00:11 6.0 °F 4.8 °F 1034.8 in Calm     92 % 0.0 in 0.0 W/m2 CLR
00:16 5.9 °F 4.7 °F 1034.8 in Calm     92 % 0.0 in 0.0 W/m2 CLR
00:21 5.9 °F 4.7 °F 1034.8 in Calm     92 % 0.0 in 0.0 W/m2 CLR
00:31 5.6 °F 4.4 °F 1034.8 in Calm     92 % 0.0 in 0.0 W/m2 CLR
00:36 5.5 °F 4.3 °F 1034.8 in Calm     92 % 0.0 in 0.0 W/m2 CLR
00:41 5.4 °F 4.2 °F 1034.8 in Calm     92 % 0.0 in 0.0 W/m2 CLR
00:46 5.4 °F 4.2 °F 1034.8 in Calm     92 % 0.0 in 0.0 W/m2 CLR
00:56 5.4 °F 4.2 °F 1034.8 in Calm     92 % 0.0 in 0.0 W/m2 CLR
01:06 5.5 °F 4.4 °F 1034.8 in Calm     93 % 0.0 in 0.0 W/m2 CLR
01:11 5.6 °F 4.5 °F 1034.8 in Calm     93 % 0.0 in 0.0 W/m2 CLR
01:16 5.6 °F 4.4 °F 1034.8 in Calm     92 % 0.0 in 0.0 W/m2 CLR
01:21 5.6 °F 4.4 °F 1034.8 in Calm     92 % 0.0 in 0.0 W/m2 CLR
01:26 5.7 °F 4.4 °F 1034.8 in Calm     92 % 0.0 in 0.0 W/m2 CLR
01:31 5.7 °F 4.7 °F 1034.8 in Calm     93 % 0.0 in 0.0 W/m2 CLR
01:36 5.8 °F 4.8 °F 1034.4 in Calm     93 % 0.0 in 0.0 W/m2 CLR
01:41 5.9 °F 4.8 °F 1034.4 in Calm     93 % 0.0 in 0.0 W/m2 CLR
01:46 6.1 °F 5.0 °F 1034.4 in Calm     93 % 0.0 in 0.0 W/m2 CLR
01:51 6.1 °F 5.1 °F 1034.4 in Calm     93 % 0.0 in 0.0 W/m2 CLR
01:56 6.2 °F 5.2 °F 1034.4 in Calm     93 % 0.0 in 0.0 W/m2 CLR
02:01 6.3 °F 5.3 °F 1034.4 in Calm     93 % 0.0 in 0.0 W/m2 CLR
02:06 6.3 °F 5.1 °F 1034.4 in Calm     92 % 0.0 in 0.0 W/m2 CLR
02:11 6.3 °F 5.1 °F 1034.4 in Calm     92 % 0.0 in 0.0 W/m2 CLR
02:16 6.4 °F 5.3 °F 1034.4 in Calm     93 % 0.0 in 0.0 W/m2 CLR
02:21 6.5 °F 5.4 °F 1034.1 in Calm     93 % 0.0 in 0.0 W/m2 CLR
02:26 6.6 °F 5.5 °F 1034.4 in Calm     93 % 0.0 in 0.0 W/m2 CLR
02:31 6.6 °F 5.6 °F 1034.1 in Calm     93 % 0.0 in 0.0 W/m2 CLR
02:36 6.7 °F 5.7 °F 1034.1 in Calm     93 % 0.0 in 0.0 W/m2 CLR
02:41 6.8 °F 5.8 °F 1034.4 in Calm     93 % 0.0 in 0.0 W/m2 CLR
02:46 6.8 °F 5.8 °F 1034.1 in Calm     93 % 0.0 in 0.0 W/m2 CLR
02:51 6.9 °F 5.9 °F 1034.1 in Calm     93 % 0.0 in 0.0 W/m2 CLR
02:56 7.0 °F 5.9 °F 1034.1 in Calm     93 % 0.0 in 0.0 W/m2 CLR
03:01 7.0 °F 5.8 °F 1034.1 in Calm     92 % 0.0 in 0.0 W/m2 CLR
03:06 7.0 °F 5.8 °F 1034.4 in Calm     92 % 0.0 in 0.0 W/m2 CLR
03:11 7.1 °F 5.8 °F 1034.1 in Calm     92 % 0.0 in 0.0 W/m2 CLR
03:16 7.1 °F 5.9 °F 1034.1 in Calm     92 % 0.0 in 0.0 W/m2 CLR
03:21 7.2 °F 5.9 °F 1034.1 in Calm     92 % 0.0 in 0.0 W/m2 CLR
03:26 7.2 °F 5.9 °F 1034.1 in Calm     92 % 0.0 in 0.0 W/m2 CLR
03:31 7.2 °F 5.9 °F 1034.1 in Calm     92 % 0.0 in 0.0 W/m2 CLR
03:36 7.2 °F 6.0 °F 1034.1 in Calm     92 % 0.0 in 0.0 W/m2 CLR
03:41 7.2 °F 6.0 °F 1034.1 in Calm     92 % 0.0 in 0.0 W/m2 CLR
03:46 7.3 °F 6.1 °F 1034.1 in Calm     92 % 0.0 in 0.0 W/m2 CLR
03:51 7.3 °F 6.1 °F 1034.1 in Calm     92 % 0.0 in 0.0 W/m2 CLR
03:56 7.3 °F 6.1 °F 1034.1 in Calm     92 % 0.0 in 0.0 W/m2 CLR
04:01 7.3 °F 6.1 °F 1034.1 in Calm     92 % 0.0 in 0.0 W/m2 CLR
04:06 7.3 °F 6.1 °F 1034.1 in Calm     92 % 0.0 in 0.0 W/m2 CLR
04:11 7.4 °F 6.2 °F 1034.1 in Calm     92 % 0.0 in 0.0 W/m2 CLR
04:16 7.4 °F 6.2 °F 1034.1 in Calm     92 % 0.0 in 0.0 W/m2 CLR
04:21 7.4 °F 6.2 °F 1033.7 in Calm     92 % 0.0 in 0.0 W/m2 CLR
04:26 7.5 °F 6.3 °F 1034.1 in Calm     92 % 0.0 in 0.0 W/m2 CLR
04:31 7.5 °F 6.3 °F 1033.7 in Calm     92 % 0.0 in 0.0 W/m2 CLR
04:41 7.6 °F 6.3 °F 1033.7 in Calm     92 % 0.0 in 0.0 W/m2 CLR
04:46 7.6 °F 6.4 °F 1033.7 in Calm     92 % 0.0 in 0.0 W/m2 CLR
04:51 7.7 °F 6.4 °F 1033.7 in Calm     92 % 0.0 in 0.0 W/m2 CLR
04:56 7.7 °F 6.4 °F 1033.7 in Calm     92 % 0.0 in 0.0 W/m2 CLR
05:01 7.6 °F 6.4 °F 1033.7 in Calm     92 % 0.0 in 0.0 W/m2 CLR
05:06 7.6 °F 6.4 °F 1033.7 in Calm     92 % 0.0 in 0.0 W/m2 CLR
05:11 7.6 °F 6.4 °F 1033.7 in Calm     92 % 0.0 in 0.0 W/m2 CLR
05:16 7.7 °F 6.4 °F 1033.7 in Calm     92 % 0.0 in 0.0 W/m2 CLR
05:21 7.7 °F 6.5 °F 1033.7 in Calm     92 % 0.0 in 0.0 W/m2 CLR
05:26 7.7 °F 6.5 °F 1033.7 in Calm     92 % 0.0 in 0.0 W/m2 CLR
05:31 7.7 °F 6.5 °F 1033.7 in Calm     92 % 0.0 in 0.0 W/m2 CLR
05:36 7.8 °F 6.6 °F 1033.7 in Calm     92 % 0.0 in 0.0 W/m2 CLR
05:41 7.7 °F 6.5 °F 1033.7 in Calm     92 % 0.0 in 0.0 W/m2 CLR
05:46 7.7 °F 6.5 °F 1033.7 in Calm     92 % 0.0 in 0.0 W/m2 CLR
05:51 7.8 °F 6.6 °F 1033.7 in Calm     92 % 0.0 in 0.0 W/m2 CLR
05:56 7.7 °F 6.5 °F 1033.7 in Calm     92 % 0.0 in 0.0 W/m2 CLR
06:01 7.7 °F 6.5 °F 1033.7 in Calm     92 % 0.0 in 0.0 W/m2 CLR
06:06 7.7 °F 6.5 °F 1033.7 in Calm     92 % 0.0 in 0.0 W/m2 CLR
06:11 7.7 °F 6.5 °F 1033.7 in Calm     92 % 0.0 in 0.0 W/m2 CLR
06:16 7.8 °F 6.6 °F 1033.7 in Calm     92 % 0.0 in 0.0 W/m2 CLR
06:21 8.0 °F 6.8 °F 1033.7 in Calm     92 % 0.0 in 0.0 W/m2 CLR
06:26 8.2 °F 7.2 °F 1033.7 in Calm     93 % 0.0 in 0.0 W/m2 CLR
06:31 8.2 °F 6.9 °F 1033.7 in Calm     92 % 0.0 in 0.0 W/m2 CLR
06:36 8.1 °F 6.9 °F 1033.7 in Calm     92 % 0.0 in 0.0 W/m2 CLR
06:41 8.1 °F 6.8 °F 1033.7 in Calm     92 % 0.0 in 0.0 W/m2 CLR
06:46 8.1 °F 6.8 °F 1033.7 in Calm     92 % 0.0 in 0.0 W/m2 CLR
06:51 8.0 °F 6.8 °F 1033.7 in Calm     92 % 0.0 in 0.0 W/m2 CLR
06:56 8.0 °F 6.8 °F 1033.7 in Calm     92 % 0.0 in 0.0 W/m2 CLR
07:02 8.0 °F 6.8 °F 1033.7 in Calm     92 % 0.0 in 0.0 W/m2 CLR
07:07 8.0 °F 6.9 °F 1033.7 in Calm     93 % 0.0 in 0.0 W/m2 CLR
07:12 8.1 °F 7.0 °F 1033.7 in Calm     93 % 0.0 in 0.0 W/m2 CLR
07:17 8.1 °F 7.0 °F 1033.7 in Calm     93 % 0.0 in 0.0 W/m2 CLR
07:22 8.1 °F 7.0 °F 1033.7 in Calm     93 % 0.0 in 0.0 W/m2 CLR
07:27 8.1 °F 7.1 °F 1033.7 in Calm     93 % 0.0 in 0.0 W/m2 CLR
07:32 8.1 °F 7.1 °F 1033.7 in Calm     93 % 0.0 in 0.0 W/m2 CLR
07:37 8.1 °F 7.1 °F 1034.1 in Calm     93 % 0.0 in 0.0 W/m2 CLR
07:42 8.1 °F 7.0 °F 1034.1 in Calm     93 % 0.0 in 0.0 W/m2 CLR
07:47 8.0 °F 6.9 °F 1034.1 in Calm     93 % 0.0 in 0.0 W/m2 OVC
07:52 8.1 °F 7.0 °F 1034.1 in Calm     93 % 0.0 in 0.0 W/m2 OVC
07:57 8.1 °F 7.0 °F 1034.1 in Calm     93 % 0.0 in 0.0 W/m2 OVC
08:02 8.1 °F 7.0 °F 1034.1 in Calm     93 % 0.0 in 0.0 W/m2 OVC
08:07 8.1 °F 7.0 °F 1034.1 in Calm     93 % 0.0 in 5.0 W/m2 OVC
08:12 8.1 °F 7.0 °F 1034.1 in Calm     93 % 0.0 in 11.0 W/m2 BKN
08:17 8.1 °F 7.0 °F 1034.1 in Calm     93 % 0.0 in 16.0 W/m2 BKN
08:22 8.1 °F 7.0 °F 1034.1 in Calm     93 % 0.0 in 21.0 W/m2 BKN
08:27 8.1 °F 7.0 °F 1034.1 in Calm     93 % 0.0 in 26.0 W/m2 BKN
08:32 8.1 °F 7.0 °F 1034.1 in Calm     93 % 0.0 in 39.0 W/m2 BKN
08:37 8.2 °F 7.1 °F 1034.1 in Calm     93 % 0.0 in 56.0 W/m2 SCT
08:42 8.3 °F 7.3 °F 1034.1 in Calm     93 % 0.0 in 70.0 W/m2 FEW
08:47 8.5 °F 7.4 °F 1034.1 in Calm     93 % 0.0 in 74.0 W/m2 FEW
08:52 8.6 °F 7.5 °F 1034.1 in Calm     93 % 0.0 in 76.0 W/m2 FEW
08:57 8.6 °F 7.5 °F 1034.1 in Calm     93 % 0.0 in 79.0 W/m2 FEW
09:02 8.4 °F 7.2 °F 1034.1 in Calm     92 % 0.0 in 93.0 W/m2 FEW
09:07 8.4 °F 7.3 °F 1034.1 in Calm     93 % 0.0 in 113.0 W/m2 CLR
09:12 8.5 °F 7.4 °F 1034.1 in Calm     93 % 0.0 in 111.0 W/m2 CLR
09:17 8.6 °F 7.6 °F 1034.1 in Calm     93 % 0.0 in 111.0 W/m2 CLR
09:22 8.7 °F 7.7 °F 1034.1 in Calm     93 % 0.0 in 123.0 W/m2 CLR
09:27 8.9 °F 7.8 °F 1034.1 in Calm     93 % 0.0 in 141.0 W/m2 CLR
09:32 9.1 °F 8.1 °F 1034.1 in Calm     93 % 0.0 in 153.0 W/m2 CLR
09:37 9.4 °F 8.4 °F 1034.1 in Calm     93 % 0.0 in 156.0 W/m2 CLR
09:42 9.7 °F 8.6 °F 1034.1 in Calm     93 % 0.0 in 162.0 W/m2 CLR
09:47 9.7 °F 8.5 °F 1034.1 in Calm     92 % 0.0 in 160.0 W/m2 CLR
09:52 9.8 °F 8.6 °F 1034.1 in Calm     92 % 0.0 in 156.0 W/m2 CLR
09:57 9.8 °F 8.4 °F 1033.7 in Calm     91 % 0.0 in 163.0 W/m2 CLR
10:02 9.8 °F 8.4 °F 1034.1 in Calm     91 % 0.0 in 155.0 W/m2 CLR
10:07 9.9 °F 8.5 °F 1034.1 in Calm     91 % 0.0 in 181.0 W/m2 CLR
10:12 10.1 °F 8.7 °F 1033.7 in Calm     91 % 0.0 in 169.0 W/m2 CLR
10:17 10.2 °F 8.7 °F 1033.7 in Calm     90 % 0.0 in 241.0 W/m2 CLR
10:22 10.5 °F 8.9 °F 1033.7 in Calm     90 % 0.0 in 239.0 W/m2 CLR
10:27 10.8 °F 9.2 °F 1033.7 in Calm     90 % 0.0 in 274.0 W/m2 CLR
10:32 11.2 °F 9.6 °F 1033.7 in Calm     90 % 0.0 in 292.0 W/m2 CLR
10:37 11.5 °F 9.6 °F 1033.7 in Calm     88 % 0.0 in 306.0 W/m2 CLR
10:42 11.8 °F 9.5 °F 1033.7 in Calm     86 % 0.0 in 359.0 W/m2 CLR
10:47 12.1 °F 9.8 °F 1033.7 in Calm     86 % 0.0 in 396.0 W/m2 CLR
10:52 12.4 °F 9.8 °F 1033.7 in Calm     84 % 0.0 in 425.0 W/m2 CLR
10:57 12.7 °F 9.8 °F 1033.4 in Calm     83 % 0.0 in 385.0 W/m2 CLR
11:02 12.8 °F 9.7 °F 1033.4 in Calm     81 % 0.0 in 332.0 W/m2 CLR
11:07 12.8 °F 9.8 °F 1033.4 in Calm     82 % 0.0 in 346.0 W/m2 CLR
11:12 12.8 °F 9.8 °F 1033.4 in Calm     82 % 0.0 in 448.0 W/m2 CLR
11:17 13.1 °F 10.1 °F 1033.4 in Calm     82 % 0.0 in 494.0 W/m2 CLR
11:22 13.3 °F 10.1 °F 1033.4 in Calm     81 % 0.0 in 513.0 W/m2 CLR
11:27 13.6 °F 10.3 °F 1033.4 in Calm     81 % 0.0 in 550.0 W/m2 CLR
11:32 14.0 °F 10.8 °F 1033.1 in Calm     81 % 0.0 in 564.0 W/m2 CLR
11:37 14.2 °F 10.6 °F 1033.1 in Calm     79 % 0.0 in 582.0 W/m2 CLR
11:42 14.3 °F 10.5 °F 1033.1 in Calm     78 % 0.0 in 596.0 W/m2 CLR
11:47 14.3 °F 10.1 °F 1033.1 in Calm     76 % 0.0 in 285.0 W/m2 CLR
11:52 14.2 °F 10.1 °F 1033.1 in Calm     76 % 0.0 in 571.0 W/m2 CLR
11:57 14.4 °F 10.3 °F 1033.1 in Calm     76 % 0.0 in 640.0 W/m2 CLR
12:07 14.7 °F 9.9 °F 1033.1 in NE 5.6 mph 5.6 mph 73 % 0.0 in 643.0 W/m2 CLR
12:12 14.8 °F 9.6 °F 1032.7 in East 6.4 mph 6.4 mph 71 % 0.0 in 638.0 W/m2 CLR
12:17 14.7 °F 9.5 °F 1032.7 in Calm     71 % 0.0 in 230.0 W/m2 CLR
12:22 14.6 °F 9.6 °F 1032.7 in SE 5.6 mph 5.6 mph 72 % 0.0 in 288.0 W/m2 CLR
12:27 14.7 °F 10.1 °F 1032.7 in Calm     74 % 0.0 in 330.0 W/m2 CLR
12:32 14.9 °F 10.2 °F 1032.7 in Calm     73 % 0.0 in 343.0 W/m2 CLR
12:37 15.0 °F 9.8 °F 1032.7 in Calm     71 % 0.0 in 341.0 W/m2 CLR
12:42 15.1 °F 9.8 °F 1032.7 in Calm     71 % 0.0 in 322.0 W/m2 CLR
12:47 15.1 °F 9.2 °F 1032.7 in SE 8.0 mph 8.0 mph 68 % 0.0 in 283.0 W/m2 CLR
12:52 14.9 °F 8.9 °F 1032.4 in East 3.7 mph   67 % 0.0 in 251.0 W/m2 CLR
12:57 14.9 °F 9.1 °F 1032.4 in Calm     68 % 0.0 in 255.0 W/m2 CLR
13:02 14.9 °F 9.1 °F 1032.4 in Calm     68 % 0.0 in 276.0 W/m2 CLR
13:07 15.1 °F 9.4 °F 1032.4 in Calm     69 % 0.0 in 299.0 W/m2 CLR
13:12 15.2 °F 8.9 °F 1032.1 in Calm     66 % 0.0 in 244.0 W/m2 CLR
13:17 15.3 °F 8.7 °F 1032.1 in SE 5.6 mph   65 % 0.0 in 218.0 W/m2 CLR
13:22 15.3 °F 9.0 °F 1032.1 in NNE 5.6 mph 5.6 mph 66 % 0.0 in 782.0 W/m2 CLR
13:27 15.7 °F 9.6 °F 1032.1 in NE 5.6 mph   67 % 0.0 in 798.0 W/m2 CLR
13:32 15.9 °F 10.0 °F 1031.7 in NNE 16.7 mph 16.7 mph 68 % 0.0 in 392.0 W/m2 CLR
13:37 15.8 °F 9.4 °F 1031.7 in Calm     66 % 0.0 in 292.0 W/m2 CLR
13:42 15.7 °F 9.8 °F 1031.7 in NE 11.3 mph 11.3 mph 68 % 0.0 in 281.0 W/m2 CLR
13:47 15.6 °F 10.2 °F 1031.4 in Calm     70 % 0.0 in 568.0 W/m2 CLR
13:52 15.7 °F 9.8 °F 1031.4 in Calm     68 % 0.0 in 223.0 W/m2 CLR
13:57 15.6 °F 8.8 °F 1031.4 in ENE 14.8 mph 14.8 mph 64 % 0.0 in 221.0 W/m2 CLR
14:02 15.4 °F 8.6 °F 1031.4 in ESE 11.1 mph 11.1 mph 64 % 0.0 in 269.0 W/m2 CLR
14:07 15.3 °F 8.5 °F 1031.4 in East 7.4 mph 7.4 mph 64 % 0.0 in 615.0 W/m2 CLR
14:12 15.4 °F 9.1 °F 1031.0 in ENE 8.0 mph 8.0 mph 66 % 0.0 in 297.0 W/m2 CLR
14:17 15.4 °F 8.8 °F 1031.0 in ENE 13.0 mph 13.0 mph 65 % 0.0 in 257.0 W/m2 CLR
14:22 15.3 °F 8.5 °F 1031.0 in ENE 11.1 mph 11.1 mph 64 % 0.0 in 211.0 W/m2 CLR
14:27 15.2 °F 9.1 °F 1031.0 in NE 9.3 mph 9.3 mph 67 % 0.0 in 499.0 W/m2 CLR
14:32 15.4 °F 8.6 °F 1031.0 in ENE 11.1 mph 11.1 mph 64 % 0.0 in 466.0 W/m2 CLR
14:37 15.6 °F 8.8 °F 1031.0 in NE 11.1 mph 11.1 mph 64 % 0.0 in 657.0 W/m2 CLR
14:42 15.9 °F 8.6 °F 1030.7 in ENE 11.3 mph 11.3 mph 62 % 0.0 in 575.0 W/m2 CLR
14:47 15.9 °F 8.4 °F 1030.7 in NE 1.9 mph   61 % 0.0 in 545.0 W/m2 CLR
14:52 16.0 °F 8.0 °F 1030.4 in ESE 16.7 mph 16.7 mph 59 % 0.0 in 497.0 W/m2 CLR
14:57 16.1 °F 8.1 °F 1030.7 in NE 7.4 mph 7.4 mph 59 % 0.0 in 336.0 W/m2 CLR
15:02 16.2 °F 8.6 °F 1030.4 in East 3.7 mph 3.7 mph 61 % 0.0 in 338.0 W/m2 CLR
15:07 16.1 °F 8.3 °F 1030.4 in NE 9.3 mph 9.3 mph 60 % 0.0 in 292.0 W/m2 CLR
15:12 15.9 °F 8.4 °F 1030.4 in NE 14.8 mph 14.8 mph 61 % 0.0 in 283.0 W/m2 CLR
15:17 15.7 °F 8.4 °F 1030.4 in ENE 5.6 mph 5.6 mph 62 % 0.0 in 294.0 W/m2 CLR
15:22 15.7 °F 8.7 °F 1030.4 in NE 6.4 mph 6.4 mph 63 % 0.0 in 380.0 W/m2 CLR
15:28 15.9 °F 8.4 °F 1030.4 in NE 8.0 mph 8.0 mph 61 % 0.0 in 357.0 W/m2 CLR
15:33 16.0 °F 8.0 °F 1030.4 in ESE 3.7 mph 3.7 mph 59 % 0.0 in 218.0 W/m2 CLR
15:38 16.0 °F 7.7 °F 1030.0 in Calm     58 % 0.0 in 468.0 W/m2 CLR
15:43 16.2 °F 8.2 °F 1030.0 in East 7.4 mph 7.4 mph 59 % 0.0 in 483.0 W/m2 CLR
15:48 16.4 °F 7.8 °F 1030.0 in Calm     57 % 0.0 in 427.0 W/m2 CLR
15:53 16.3 °F 8.1 °F 1030.0 in East 6.4 mph 6.4 mph 58 % 0.0 in 443.0 W/m2 CLR
15:58 16.3 °F 8.1 °F 1030.0 in Calm     58 % 0.0 in 334.0 W/m2 CLR
16:03 16.3 °F 7.8 °F 1030.0 in ESE 5.6 mph 5.6 mph 57 % 0.0 in 311.0 W/m2 CLR
16:08 16.2 °F 7.6 °F 1030.0 in East 7.4 mph 7.4 mph 57 % 0.0 in 269.0 W/m2 CLR
16:13 16.1 °F 7.6 °F 1030.0 in ENE 7.4 mph 7.4 mph 57 % 0.0 in 313.0 W/m2 CLR
16:18 16.1 °F 7.6 °F 1030.0 in Calm     57 % 0.0 in 290.0 W/m2 CLR
16:23 16.1 °F 7.6 °F 1030.0 in East 3.7 mph   57 % 0.0 in 209.0 W/m2 CLR
16:28 16.0 °F 6.9 °F 1030.0 in Calm     55 % 0.0 in 171.0 W/m2 CLR
16:33 15.9 °F 7.4 °F 1030.0 in East 3.7 mph 3.7 mph 57 % 0.0 in 149.0 W/m2 CLR
16:38 15.9 °F 7.4 °F 1029.7 in ESE 7.4 mph 7.4 mph 57 % 0.0 in 153.0 W/m2 CLR
16:48 15.7 °F 7.7 °F 1029.7 in ENE 7.4 mph 7.4 mph 59 % 0.0 in 130.0 W/m2 CLR
16:53 15.6 °F 7.9 °F 1029.7 in ENE 13.0 mph 13.0 mph 60 % 0.0 in 121.0 W/m2 CLR
16:58 15.5 °F 8.0 °F 1029.7 in East 7.4 mph 7.4 mph 61 % 0.0 in 128.0 W/m2 CLR
17:03 15.3 °F 7.8 °F 1029.7 in East 7.4 mph 7.4 mph 61 % 0.0 in 125.0 W/m2 CLR
17:08 15.3 °F 8.1 °F 1030.0 in ENE 4.8 mph 4.8 mph 62 % 0.0 in 118.0 W/m2 CLR
17:13 15.3 °F 8.1 °F 1029.7 in East 7.4 mph 7.4 mph 62 % 0.0 in 111.0 W/m2 CLR
17:18 15.2 °F 7.7 °F 1029.7 in Calm     61 % 0.0 in 104.0 W/m2 CLR
17:23 15.1 °F 8.1 °F 1029.7 in East 1.9 mph 1.9 mph 63 % 0.0 in 98.0 W/m2 CLR
17:28 15.1 °F 8.1 °F 1030.0 in ENE 7.4 mph 7.4 mph 63 % 0.0 in 93.0 W/m2 CLR
17:33 15.0 °F 8.2 °F 1030.0 in ESE 8.0 mph 8.0 mph 64 % 0.0 in 91.0 W/m2 CLR
17:38 14.9 °F 8.1 °F 1030.0 in East 3.7 mph 3.7 mph 64 % 0.0 in 84.0 W/m2 CLR
17:43 14.8 °F 8.5 °F 1030.0 in ESE 7.4 mph 7.4 mph 66 % 0.0 in 72.0 W/m2 FEW
17:48 14.7 °F 8.6 °F 1030.0 in Calm     67 % 0.0 in 62.0 W/m2 SCT
17:53 14.6 °F 8.7 °F 1030.0 in East 7.4 mph 7.4 mph 68 % 0.0 in 54.0 W/m2 SCT
17:58 14.4 °F 8.8 °F 1030.0 in Calm     69 % 0.0 in 46.0 W/m2 SCT
18:03 14.3 °F 8.9 °F 1030.0 in ESE 5.6 mph 5.6 mph 70 % 0.0 in 39.0 W/m2 BKN
18:08 14.2 °F 9.1 °F 1030.0 in ESE 1.9 mph   71 % 0.0 in 32.0 W/m2 BKN
18:13 14.1 °F 9.1 °F 1030.0 in Calm     72 % 0.0 in 21.0 W/m2 BKN
18:18 13.9 °F 9.2 °F 1030.0 in Calm     73 % 0.0 in 14.0 W/m2 BKN
18:33 13.6 °F 9.1 °F 1030.4 in Calm     74 % 0.0 in 0.0 W/m2 OVC
18:38 13.5 °F 9.2 °F 1030.4 in Calm     75 % 0.0 in 0.0 W/m2 OVC
18:43 13.3 °F 9.0 °F 1030.4 in Calm     75 % 0.0 in 0.0 W/m2 OVC
18:48 13.3 °F 9.1 °F 1030.4 in Calm     76 % 0.0 in 0.0 W/m2 CLR
18:53 13.2 °F 9.0 °F 1030.4 in Calm     76 % 0.0 in 0.0 W/m2 CLR
18:58 13.0 °F 9.1 °F 1030.4 in Calm     77 % 0.0 in 0.0 W/m2 CLR
19:03 12.9 °F 8.9 °F 1030.4 in Calm     77 % 0.0 in 0.0 W/m2 CLR
19:08 12.8 °F 9.1 °F 1030.7 in Calm     78 % 0.0 in 0.0 W/m2 CLR
19:13 12.7 °F 8.9 °F 1030.7 in Calm     78 % 0.0 in 0.0 W/m2 CLR
19:18 12.6 °F 9.0 °F 1030.7 in Calm     79 % 0.0 in 0.0 W/m2 CLR
19:23 12.4 °F 8.8 °F 1030.7 in Calm     79 % 0.0 in 0.0 W/m2 CLR
19:28 12.2 °F 8.9 °F 1030.7 in Calm     80 % 0.0 in 0.0 W/m2 CLR
19:33 12.1 °F 8.9 °F 1030.7 in Calm     81 % 0.0 in 0.0 W/m2 CLR
19:38 11.9 °F 8.8 °F 1030.7 in Calm     81 % 0.0 in 0.0 W/m2 CLR
19:43 11.7 °F 8.6 °F 1031.0 in Calm     81 % 0.0 in 0.0 W/m2 CLR
19:48 11.6 °F 8.6 °F 1031.0 in Calm     82 % 0.0 in 0.0 W/m2 CLR
19:53 11.3 °F 8.3 °F 1031.0 in Calm     82 % 0.0 in 0.0 W/m2 CLR
19:58 11.1 °F 8.4 °F 1031.0 in Calm     84 % 0.0 in 0.0 W/m2 CLR
20:03 10.8 °F 8.2 °F 1031.0 in Calm     84 % 0.0 in 0.0 W/m2 CLR
20:08 10.7 °F 8.2 °F 1031.0 in Calm     85 % 0.0 in 0.0 W/m2 CLR
20:13 10.6 °F 8.1 °F 1031.0 in Calm     85 % 0.0 in 0.0 W/m2 CLR
20:18 10.4 °F 8.2 °F 1031.0 in Calm     86 % 0.0 in 0.0 W/m2 CLR
20:23 10.3 °F 8.1 °F 1031.4 in Calm     86 % 0.0 in 0.0 W/m2 CLR
20:28 10.1 °F 7.9 °F 1031.4 in Calm     86 % 0.0 in 0.0 W/m2 CLR
20:33 10.0 °F 7.9 °F 1031.4 in Calm     87 % 0.0 in 0.0 W/m2 CLR
20:38 9.9 °F 7.8 °F 1031.4 in Calm     87 % 0.0 in 0.0 W/m2 CLR
20:43 9.8 °F 7.8 °F 1031.4 in Calm     87 % 0.0 in 0.0 W/m2 CLR
20:48 9.7 °F 7.7 °F 1031.4 in Calm     87 % 0.0 in 0.0 W/m2 CLR
20:53 9.6 °F 7.6 °F 1031.4 in Calm     87 % 0.0 in 0.0 W/m2 CLR
20:58 9.4 °F 7.6 °F 1031.4 in Calm     88 % 0.0 in 0.0 W/m2 CLR
21:03 9.3 °F 7.4 °F 1031.4 in Calm     88 % 0.0 in 0.0 W/m2 CLR
21:09 9.2 °F 7.3 °F 1031.4 in Calm     88 % 0.0 in 0.0 W/m2 CLR
21:13 9.1 °F 7.4 °F 1031.4 in Calm     89 % 0.0 in 0.0 W/m2 CLR
21:19 9.1 °F 7.2 °F 1031.7 in Calm     88 % 0.0 in 0.0 W/m2 CLR
21:24 8.9 °F 7.0 °F 1031.7 in Calm     88 % 0.0 in 0.0 W/m2 CLR
21:29 8.8 °F 7.1 °F 1031.7 in Calm     89 % 0.0 in 0.0 W/m2 CLR
21:34 8.6 °F 6.9 °F 1031.7 in Calm     89 % 0.0 in 0.0 W/m2 CLR
21:39 8.5 °F 6.8 °F 1031.7 in Calm     89 % 0.0 in 0.0 W/m2 CLR
21:44 8.3 °F 6.6 °F 1031.7 in Calm     89 % 0.0 in 0.0 W/m2 CLR
21:49 8.1 °F 6.4 °F 1031.7 in Calm     89 % 0.0 in 0.0 W/m2 CLR
21:54 8.0 °F 6.4 °F 1032.1 in Calm     90 % 0.0 in 0.0 W/m2 CLR
21:59 7.9 °F 6.4 °F 1032.1 in Calm     90 % 0.0 in 0.0 W/m2 CLR
22:04 7.9 °F 6.4 °F 1032.1 in Calm     90 % 0.0 in 0.0 W/m2 CLR
22:09 7.8 °F 6.3 °F 1032.1 in Calm     90 % 0.0 in 0.0 W/m2 CLR
22:14 7.7 °F 6.2 °F 1032.1 in Calm     90 % 0.0 in 0.0 W/m2 CLR
22:19 7.6 °F 6.0 °F 1032.1 in Calm     90 % 0.0 in 0.0 W/m2 CLR
22:24 7.4 °F 5.8 °F 1032.1 in Calm     90 % 0.0 in 0.0 W/m2 CLR
22:29 7.3 °F 5.7 °F 1032.1 in Calm     90 % 0.0 in 0.0 W/m2 CLR
22:34 7.2 °F 5.6 °F 1032.1 in Calm     90 % 0.0 in 0.0 W/m2 CLR
22:39 7.1 °F 5.7 °F 1032.1 in Calm     91 % 0.0 in 0.0 W/m2 CLR
22:44 6.9 °F 5.6 °F 1032.1 in Calm     91 % 0.0 in 0.0 W/m2 CLR
22:49 6.8 °F 5.4 °F 1032.1 in Calm     91 % 0.0 in 0.0 W/m2 CLR
22:54 6.7 °F 5.3 °F 1032.1 in Calm     91 % 0.0 in 0.0 W/m2 CLR
22:59 6.6 °F 5.2 °F 1032.1 in Calm     91 % 0.0 in 0.0 W/m2 CLR
23:04 6.6 °F 5.2 °F 1032.1 in Calm     91 % 0.0 in 0.0 W/m2 CLR
23:09 6.6 °F 5.4 °F 1032.1 in Calm     92 % 0.0 in 0.0 W/m2 CLR
23:14 6.6 °F 5.3 °F 1032.1 in Calm     92 % 0.0 in 0.0 W/m2 CLR
23:19 6.4 °F 5.1 °F 1032.1 in Calm     91 % 0.0 in 0.0 W/m2 CLR
23:24 6.4 °F 5.2 °F 1032.1 in Calm     92 % 0.0 in 0.0 W/m2 CLR
23:29 6.3 °F 5.1 °F 1032.1 in Calm     92 % 0.0 in 0.0 W/m2 CLR
23:34 6.2 °F 4.9 °F 1032.1 in Calm     92 % 0.0 in 0.0 W/m2 CLR
23:39 6.1 °F 4.9 °F 1032.1 in Calm     92 % 0.0 in 0.0 W/m2 CLR
23:44 6.0 °F 4.8 °F 1032.1 in Calm     92 % 0.0 in 0.0 W/m2 CLR
23:49 5.9 °F 4.7 °F 1032.1 in Calm     92 % 0.0 in 0.0 W/m2 CLR
23:54 5.9 °F 4.7 °F 1032.1 in Calm     92 % 0.0 in 0.0 W/m2 CLR
23:59 5.8 °F 4.6 °F 1031.7 in Calm     92 % 0.0 in 0.0 W/m2 CLR
Lo Temps de Massalio
Compliments of Weather Underground - 1.25 mb